Time;durP1;ratioP1;P1;durP2;ratioP2;P2;SDS_P1;SDS_P2;PMS_P1;PMS_P2;Temp;Humidity;BMP_temperature;BMP_pressure;BME280_temperature;BME280_humidity;BME280_pressure;Samples;Min_cycle;Max_cycle;Signal;HPM_P1;HPM_P2
2022/08/07 00:01:03;;;;;;;9.95;7.60;;;;;;;21.36;79.24;96630.91;4988301;28;20060;-61
2022/08/07 00:03:50;;;;;;;9.25;7.85;;;;;;;21.33;78.98;96623.34;4988289;28;20105;-65
2022/08/07 00:06:17;;;;;;;9.35;7.38;;;;;;;21.44;79.27;96629.44;4988173;28;20148;-61
2022/08/07 00:08:54;;;;;;;10.93;8.05;;;;;;;21.51;78.91;96626.41;4988267;28;20504;-60
2022/08/07 00:11:21;;;;;;;12.75;8.05;;;;;;;21.30;79.62;96626.28;4988109;28;20108;-65
2022/08/07 00:13:58;;;;;;;9.77;7.25;;;;;;;21.36;80.18;96636.53;4987138;28;20066;-60
2022/08/07 00:16:25;;;;;;;11.10;7.65;;;;;;;21.40;80.10;96636.44;4987246;28;20058;-65
2022/08/07 00:18:53;;;;;;;11.65;7.30;;;;;;;21.32;80.24;96630.22;4988316;28;20057;-60
2022/08/07 00:21:21;;;;;;;12.23;7.97;;;;;;;21.30;80.43;96631.91;5002737;28;20058;-60
2022/08/07 00:24:07;;;;;;;9.43;7.90;;;;;;;21.25;80.74;96630.44;4987831;28;20057;-61
2022/08/07 00:26:34;;;;;;;10.13;8.57;;;;;;;20.61;82.24;96563.22;4988345;28;20072;-63
2022/08/07 00:29:24;;;;;;;9.13;7.28;;;;;;;21.19;81.31;96637.88;4988305;28;20058;-61
2022/08/07 00:31:58;;;;;;;9.77;7.40;;;;;;;20.69;82.17;96575.84;4986429;28;20069;-64
2022/08/07 00:34:26;;;;;;;10.05;7.68;;;;;;;20.46;82.99;96545.16;4987873;28;20058;-64
2022/08/07 00:36:55;;;;;;;9.50;8.20;;;;;;;21.06;82.57;96634.25;4987844;28;20080;-64
2022/08/07 00:39:22;;;;;;;14.73;7.88;;;;;;;21.03;83.04;96635.16;4987818;28;20060;-59
2022/08/07 00:41:54;;;;;;;10.52;8.00;;;;;;;20.91;83.60;96616.19;5002248;28;20050;-59
2022/08/07 00:44:31;;;;;;;11.77;8.32;;;;;;;20.69;83.22;96581.47;4987660;28;20101;-66
2022/08/07 00:47:00;;;;;;;11.15;8.13;;;;;;;20.88;84.50;96631.19;5000812;28;20537;-60
2022/08/07 00:49:27;;;;;;;10.45;7.85;;;;;;;20.94;84.09;96626.56;5002352;28;20052;-65
2022/08/07 00:52:14;;;;;;;11.65;7.90;;;;;;;20.93;83.71;96630.59;5000188;28;20586;-64
2022/08/07 00:54:46;;;;;;;11.75;7.97;;;;;;;20.81;84.34;96628.56;4987451;28;20133;-65
2022/08/07 00:57:21;;;;;;;10.10;8.23;;;;;;;20.44;85.09;96575.78;4987315;28;20061;-64
2022/08/07 00:59:48;;;;;;;10.52;8.10;;;;;;;20.77;85.22;96627.88;4987362;28;20137;-65
2022/08/07 01:02:14;;;;;;;12.10;8.88;;;;;;;20.86;84.30;96625.19;4987453;28;20073;-65
2022/08/07 01:04:54;;;;;;;14.70;8.45;;;;;;;20.77;85.08;96620.22;4987586;28;20106;-62
2022/08/07 01:07:25;;;;;;;11.38;8.20;;;;;;;20.60;85.82;96615.09;4987333;28;20504;-61
2022/08/07 01:09:54;;;;;;;12.55;8.23;;;;;;;20.50;86.91;96619.81;4987106;28;20054;-65
2022/08/07 01:12:37;;;;;;;10.98;8.75;;;;;;;20.46;86.75;96623.94;4987368;28;20050;-65
2022/08/07 01:15:04;;;;;;;11.20;8.40;;;;;;;19.90;86.98;96519.41;4987331;28;20053;-60
2022/08/07 01:17:32;;;;;;;11.70;7.82;;;;;;;20.27;86.92;96588.31;5001881;28;20133;-64
2022/08/07 01:20:15;;;;;;;11.85;8.23;;;;;;;20.48;86.88;96629.94;4986924;28;20137;-65
2022/08/07 01:22:43;;;;;;;13.52;8.95;;;;;;;20.12;87.53;96584.31;5001484;28;20137;-59
2022/08/07 01:25:27;;;;;;;12.35;8.95;;;;;;;20.34;87.87;96622.69;4987184;28;20086;-59
2022/08/07 01:28:14;;;;;;;11.13;8.48;;;;;;;20.20;88.25;96611.81;4999028;28;20054;-65
2022/08/07 01:30:41;;;;;;;18.35;8.35;;;;;;;20.39;87.50;96624.94;4986646;28;20073;-65
2022/08/07 01:33:08;;;;;;;11.13;8.85;;;;;;;19.93;87.47;96574.00;4985164;28;20501;-64
2022/08/07 01:35:35;;;;;;;14.07;9.23;;;;;;;20.40;87.50;96614.47;4986863;28;20138;-60
2022/08/07 01:38:21;;;;;;;11.23;9.57;;;;;;;20.35;88.17;96615.03;4986372;28;20591;-65
2022/08/07 01:40:58;;;;;;;12.50;9.00;;;;;;;20.30;88.87;96615.56;4986668;28;20058;-60
2022/08/07 01:43:26;;;;;;;13.07;9.05;;;;;;;20.39;88.44;96612.91;4986529;28;20113;-65
2022/08/07 01:46:03;;;;;;;11.10;8.65;;;;;;;20.16;88.82;96587.84;4986606;28;20076;-61
2022/08/07 01:48:31;;;;;;;12.82;7.63;;;;;;;19.91;89.72;96565.19;4985875;28;20517;-65
2022/08/07 01:51:03;;;;;;;13.65;8.63;;;;;;;20.27;89.31;96605.19;5001095;28;20061;-60
2022/08/07 01:53:56;;;;;;;11.75;9.20;;;;;;;20.35;88.60;96612.22;4986486;28;20054;-65
2022/08/07 01:56:47;;;;;;;11.27;8.60;;;;;;;19.97;88.64;96569.03;4986413;28;20135;-65
2022/08/07 01:59:21;;;;;;;12.82;8.80;;;;;;;20.31;88.52;96622.78;4986002;28;20058;-60
2022/08/07 02:01:57;;;;;;;10.90;8.13;;;;;;;20.17;88.69;96606.31;4985869;28;20560;-65
2022/08/07 02:04:38;;;;;;;12.02;8.70;;;;;;;20.24;88.73;96617.34;4986155;28;20046;-65
2022/08/07 02:07:24;;;;;;;11.85;8.70;;;;;;;20.19;89.30;96609.44;4986268;28;20057;-65
2022/08/07 02:10:04;;;;;;;11.05;8.63;;;;;;;19.85;89.77;96561.34;4999567;28;20468;-60
2022/08/07 02:12:34;;;;;;;11.05;8.48;;;;;;;20.21;89.14;96660.44;4986119;28;20054;-66
2022/08/07 02:15:02;;;;;;;13.90;9.48;;;;;;;19.76;89.50;96555.59;4986076;28;20480;-65
2022/08/07 02:17:33;;;;;;;12.45;9.13;;;;;;;19.94;89.92;96596.03;4986047;28;20058;-63
2022/08/07 02:20:03;;;;;;;12.05;8.77;;;;;;;19.98;90.72;96610.78;5000388;28;20054;-65
2022/08/07 02:22:44;;;;;;;13.02;9.07;;;;;;;19.52;91.30;96552.97;4985677;28;20053;-65
2022/08/07 02:25:14;;;;;;;16.35;8.93;;;;;;;19.94;90.74;96603.69;4985732;28;20511;-60
2022/08/07 02:27:46;;;;;;;14.98;9.93;;;;;;;19.88;91.95;96616.69;5000361;28;20428;-65
2022/08/07 02:30:18;;;;;;;13.32;10.25;;;;;;;19.54;91.51;96558.94;4999914;28;20146;-61
2022/08/07 02:32:48;;;;;;;13.32;9.25;;;;;;;20.01;91.12;96611.94;4985794;28;20051;-65
2022/08/07 02:35:34;;;;;;;14.20;9.50;;;;;;;20.07;91.22;96612.97;4985816;28;20077;-63
2022/08/07 02:38:27;;;;;;;12.82;9.50;;;;;;;19.85;91.11;96583.84;4985187;28;20104;-60
2022/08/07 02:40:58;;;;;;;11.45;8.55;;;;;;;20.05;91.30;96623.88;4985474;28;20077;-60
2022/08/07 02:43:27;;;;;;;11.48;9.07;;;;;;;20.01;91.14;96609.13;4985394;28;20058;-65
2022/08/07 02:45:57;;;;;;;11.55;9.15;;;;;;;20.03;90.98;96601.03;5000366;28;20169;-65
2022/08/07 02:48:29;;;;;;;13.45;10.10;;;;;;;19.86;90.64;96574.16;4984921;28;20732;-60
2022/08/07 02:50:58;;;;;;;14.48;9.68;;;;;;;20.02;90.98;96610.69;4985346;28;20050;-65
2022/08/07 02:53:31;;;;;;;12.80;8.75;;;;;;;19.99;91.23;96614.38;5000189;28;20058;-60
2022/08/07 02:56:07;;;;;;;12.75;9.40;;;;;;;20.03;90.33;96623.53;4985485;28;20054;-61
2022/08/07 02:58:49;;;;;;;11.68;8.90;;;;;;;20.03;90.70;96613.06;4985558;28;20155;-65
2022/08/07 03:01:18;;;;;;;11.18;8.75;;;;;;;19.96;91.00;96618.09;4984966;28;20054;-65
2022/08/07 03:04:04;;;;;;;16.38;9.93;;;;;;;20.03;89.87;96620.72;4998018;28;20056;-65
2022/08/07 03:06:38;;;;;;;13.13;9.20;;;;;;;19.91;90.50;96610.97;4984978;28;20053;-62
2022/08/07 03:09:07;;;;;;;15.75;9.30;;;;;;;19.96;89.99;96604.03;4983558;28;20069;-65
2022/08/07 03:11:37;;;;;;;13.65;9.10;;;;;;;19.99;89.81;96626.44;4984851;28;20059;-64
2022/08/07 03:14:24;;;;;;;14.23;8.98;;;;;;;20.01;89.87;96620.38;4985371;28;20101;-64
2022/08/07 03:16:51;;;;;;;13.73;9.40;;;;;;;19.86;89.32;96610.72;4977973;28;20104;-60
2022/08/07 03:19:18;;;;;;;14.55;9.95;;;;;;;19.97;89.61;96628.09;4996635;28;20138;-60
2022/08/07 03:21:45;;;;;;;15.85;9.98;;;;;;;19.81;90.70;96614.84;4984778;28;20058;-60
2022/08/07 03:24:17;;;;;;;12.95;9.45;;;;;;;19.84;91.35;96628.03;4983800;28;20051;-64
2022/08/07 03:26:58;;;;;;;14.95;10.23;;;;;;;19.98;90.72;96632.50;4983859;28;20054;-64
2022/08/07 03:29:33;;;;;;;13.55;9.82;;;;;;;20.06;89.72;96633.91;4999835;28;20054;-64
2022/08/07 03:32:06;;;;;;;12.48;9.20;;;;;;;19.77;89.24;96588.06;4984781;28;20069;-64
2022/08/07 03:34:41;;;;;;;14.40;9.38;;;;;;;20.16;88.94;96633.63;4984867;28;20054;-65
2022/08/07 03:37:28;;;;;;;11.57;9.68;;;;;;;20.18;88.43;96641.63;4984653;28;20050;-64
2022/08/07 03:40:04;;;;;;;13.10;9.50;;;;;;;20.12;86.76;96604.78;4985336;28;20058;-64
2022/08/07 03:42:42;;;;;;;12.38;9.02;;;;;;;20.26;86.95;96631.75;4984749;28;20148;-65
2022/08/07 03:45:10;;;;;;;18.30;9.70;;;;;;;20.15;87.77;96634.06;4984994;28;20054;-60
2022/08/07 03:47:56;;;;;;;13.30;9.32;;;;;;;19.09;87.82;96476.63;4983464;28;20058;-60
2022/08/07 03:50:24;;;;;;;13.27;10.05;;;;;;;20.20;88.03;96639.94;4995460;28;20133;-60
2022/08/07 03:52:57;;;;;;;18.00;10.52;;;;;;;20.23;87.31;96627.03;5004432;28;20050;-65
2022/08/07 03:55:26;;;;;;;17.70;11.00;;;;;;;20.40;86.75;96637.00;5004696;28;20062;-64
2022/08/07 03:58:13;;;;;;;12.80;9.38;;;;;;;20.50;86.63;96641.53;5003213;28;20100;-62
2022/08/07 04:01:02;;;;;;;12.35;9.55;;;;;;;20.60;85.73;96635.59;5004419;28;20507;-65
2022/08/07 04:03:33;;;;;;;13.93;9.73;;;;;;;20.56;86.57;96642.56;5004230;28;20501;-61
2022/08/07 04:06:20;;;;;;;17.10;10.77;;;;;;;20.36;86.89;96591.31;5004116;28;20562;-61
2022/08/07 04:09:05;;;;;;;13.25;10.10;;;;;;;20.81;85.52;96639.81;5017270;28;20233;-65
2022/08/07 04:11:37;;;;;;;15.13;9.95;;;;;;;20.63;85.02;96591.69;5004511;28;20046;-61
2022/08/07 04:14:26;;;;;;;12.48;9.43;;;;;;;20.60;84.85;96596.19;5004403;28;20144;-63
2022/08/07 04:17:09;;;;;;;14.93;9.88;;;;;;;20.94;84.65;96654.72;5004131;28;20137;-62
2022/08/07 04:19:47;;;;;;;13.35;9.48;;;;;;;21.20;84.10;96645.09;5004259;28;20579;-60
2022/08/07 04:22:23;;;;;;;15.13;10.35;;;;;;;21.33;82.60;96651.53;5003858;28;20057;-63
2022/08/07 04:24:58;;;;;;;15.27;10.18;;;;;;;21.58;81.32;96637.44;5007759;28;20441;-65
2022/08/07 04:27:27;;;;;;;12.15;9.32;;;;;;;21.66;81.46;96643.63;5007809;28;20057;-61
2022/08/07 04:30:02;;;;;;;12.38;9.35;;;;;;;21.18;80.41;96546.16;5007786;28;20046;-65
2022/08/07 04:32:36;;;;;;;15.55;10.27;;;;;;;21.92;78.96;96623.44;5007265;28;20057;-61
2022/08/07 04:35:04;;;;;;;14.65;9.60;;;;;;;22.43;77.84;96641.75;5007730;28;20451;-61
2022/08/07 04:37:34;;;;;;;18.27;10.68;;;;;;;22.66;76.30;96649.03;5022276;28;20065;-65
2022/08/07 04:40:21;;;;;;;14.77;9.57;;;;;;;22.84;75.33;96654.03;5020042;28;20062;-61
2022/08/07 04:42:57;;;;;;;16.02;10.70;;;;;;;22.71;74.78;96605.28;5007284;28;20053;-62
2022/08/07 04:45:39;;;;;;;14.52;9.35;;;;;;;22.88;75.16;96609.47;5007421;28;20096;-61
2022/08/07 04:48:58;;;;;;;13.50;9.18;;;;;;;23.35;73.53;96656.09;5017329;28;20429;-65
2022/08/07 04:51:36;;;;;;;14.98;9.73;;;;;;;23.53;73.14;96666.69;4983834;28;20524;-64
2022/08/07 04:54:27;;;;;;;14.75;10.20;;;;;;;23.61;72.55;96651.03;4987553;28;20137;-60
2022/08/07 04:57:15;;;;;;;14.40;9.93;;;;;;;23.75;71.56;96671.03;4987270;28;20081;-60
2022/08/07 05:00:17;;;;;;;11.73;9.18;;;;;;;23.91;70.78;96670.00;4987820;28;20062;-60
2022/08/07 05:03:21;;;;;;;14.00;9.48;;;;;;;23.96;71.71;96677.06;4985962;28;20046;-64
2022/08/07 05:06:20;;;;;;;11.18;9.98;;;;;;;24.13;70.71;96679.19;4987097;28;20132;-61
2022/08/07 05:08:58;;;;;;;11.48;8.60;;;;;;;24.32;70.25;96683.63;4986685;28;20587;-59
2022/08/07 05:11:38;;;;;;;12.27;9.73;;;;;;;24.40;70.10;96684.91;4987162;28;20058;-64
2022/08/07 05:14:32;;;;;;;17.17;10.45;;;;;;;24.47;69.95;96678.16;4987204;28;20104;-64
2022/08/07 05:17:20;;;;;;;15.98;9.75;;;;;;;24.45;69.95;96687.13;4987035;28;20086;-62
2022/08/07 05:20:10;;;;;;;17.80;10.55;;;;;;;24.15;70.90;96628.56;4987150;28;20489;-64
2022/08/07 05:22:40;;;;;;;16.38;11.82;;;;;;;24.54;71.57;96684.28;4986924;28;20070;-64
2022/08/07 05:25:09;;;;;;;13.65;10.10;;;;;;;24.41;69.27;96680.81;4985470;28;20054;-64
2022/08/07 05:27:52;;;;;;;18.20;11.48;;;;;;;24.43;71.08;96683.97;4999566;28;20579;-64
2022/08/07 05:30:41;;;;;;;15.45;10.52;;;;;;;24.55;69.34;96685.09;4986198;28;20120;-60
2022/08/07 05:33:08;;;;;;;14.75;9.38;;;;;;;24.32;69.43;96655.31;4986402;28;20077;-59
2022/08/07 05:35:35;;;;;;;12.73;8.77;;;;;;;24.66;67.99;96674.88;4986436;28;20057;-64
2022/08/07 05:38:09;;;;;;;11.10;8.02;;;;;;;24.26;66.16;96606.25;4986771;28;20067;-61
2022/08/07 05:40:37;;;;;;;19.65;9.27;;;;;;;24.74;67.44;96672.50;4986394;28;20058;-65
2022/08/07 05:43:18;;;;;;;11.98;8.32;;;;;;;24.63;66.87;96714.66;4988283;28;20050;-60
2022/08/07 05:46:05;;;;;;;10.25;8.60;;;;;;;24.88;66.73;96686.81;4966871;28;20093;-60
2022/08/07 05:48:32;;;;;;;10.32;7.70;;;;;;;24.89;66.01;96668.59;4966704;28;20070;-64
2022/08/07 05:51:01;;;;;;;13.10;8.82;;;;;;;25.13;66.20;96686.47;4983391;28;20057;-62
2022/08/07 05:53:29;;;;;;;13.90;8.70;;;;;;;24.60;66.48;96650.44;4986179;28;20092;-64
2022/08/07 05:56:18;;;;;;;13.98;9.50;;;;;;;24.58;66.09;96645.25;4985459;28;20069;-64
2022/08/07 05:58:46;;;;;;;11.55;8.73;;;;;;;24.55;66.40;96668.84;4986362;28;20050;-64
2022/08/07 06:01:19;;;;;;;17.48;8.45;;;;;;;24.94;66.12;96707.59;4986000;28;20485;-64
2022/08/07 06:03:50;;;;;;;18.75;9.35;;;;;;;24.97;66.27;96700.22;4985974;28;20537;-61
2022/08/07 06:06:23;;;;;;;13.75;8.52;;;;;;;24.60;65.96;96659.75;4986473;28;20087;-61
2022/08/07 06:08:58;;;;;;;17.33;9.80;;;;;;;25.04;65.81;96708.38;4984835;28;20066;-64
2022/08/07 06:11:25;;;;;;;15.63;8.95;;;;;;;24.67;65.89;96642.47;4986209;28;20058;-62
2022/08/07 06:13:54;;;;;;;14.15;8.75;;;;;;;25.35;64.72;96716.72;4985781;28;20112;-60
2022/08/07 06:16:42;;;;;;;11.60;8.90;;;;;;;25.41;63.92;96717.66;4985856;28;20136;-59
2022/08/07 06:19:17;;;;;;;19.10;9.77;;;;;;;25.02;64.80;96643.66;4985335;28;20508;-59
2022/08/07 06:22:04;;;;;;;16.77;9.45;;;;;;;25.34;63.92;96709.50;4984818;28;20050;-60
2022/08/07 06:24:48;;;;;;;14.02;8.50;;;;;;;25.37;64.17;96711.38;4985587;28;20069;-63
2022/08/07 06:27:24;;;;;;;18.27;9.38;;;;;;;25.31;64.28;96714.81;4985182;28;20057;-62
2022/08/07 06:30:11;;;;;;;20.70;11.48;;;;;;;25.42;64.07;96707.91;4985624;28;20050;-60
2022/08/07 06:32:58;;;;;;;13.77;8.88;;;;;;;25.34;64.36;96713.09;4985428;28;20058;-62
2022/08/07 06:35:25;;;;;;;11.95;8.63;;;;;;;25.29;64.89;96723.00;4986217;28;20054;-64
2022/08/07 06:38:11;;;;;;;16.52;9.65;;;;;;;25.25;64.06;96716.72;4985387;28;20140;-60
2022/08/07 06:40:51;;;;;;;15.52;8.57;;;;;;;25.31;63.54;96720.50;4985392;28;20053;-63
2022/08/07 06:43:21;;;;;;;11.75;8.32;;;;;;;25.16;63.81;96702.56;4985466;28;20108;-64
2022/08/07 06:45:49;;;;;;;12.27;8.27;;;;;;;25.29;63.92;96717.34;4984680;28;20046;-63
2022/08/07 06:48:17;;;;;;;17.83;9.10;;;;;;;25.03;64.00;96673.59;4985113;28;20063;-60
2022/08/07 06:50:53;;;;;;;15.90;8.80;;;;;;;24.76;63.59;96622.63;4999087;28;20057;-63
2022/08/07 06:53:23;;;;;;;22.48;10.48;;;;;;;25.58;63.43;96727.38;5005633;28;20081;-60
2022/08/07 06:56:12;;;;;;;22.85;10.20;;;;;;;25.76;63.35;96733.00;5004817;28;20527;-64
2022/08/07 06:58:42;;;;;;;19.98;8.85;;;;;;;25.89;61.83;96691.03;5005141;28;20475;-65
2022/08/07 07:01:32;;;;;;;15.40;9.40;;;;;;;26.21;61.70;96741.34;5005077;28;20054;-64
2022/08/07 07:04:15;;;;;;;15.38;9.25;;;;;;;26.52;60.43;96744.69;5004658;28;20508;-64
2022/08/07 07:06:59;;;;;;;21.27;10.35;;;;;;;26.42;59.34;96728.94;5005123;28;20143;-64
2022/08/07 07:09:29;;;;;;;15.93;10.27;;;;;;;26.65;58.94;96743.19;5004647;28;20057;-64
2022/08/07 07:12:06;;;;;;;22.00;11.48;;;;;;;26.73;59.23;96743.59;5004252;28;20049;-64
2022/08/07 07:15:00;;;;;;;12.60;8.90;;;;;;;26.76;56.79;96736.97;5004523;28;20064;-64
2022/08/07 07:17:47;;;;;;;7.68;6.68;;;;;;;26.42;56.36;96740.31;5004652;28;20050;-60
2022/08/07 07:20:22;;;;;;;8.43;6.88;;;;;;;26.32;55.77;96735.97;5003037;28;20500;-64
2022/08/07 07:22:53;;;;;;;9.35;7.57;;;;;;;26.54;55.91;96742.91;5004448;28;20060;-62
2022/08/07 07:25:43;;;;;;;15.52;7.60;;;;;;;26.83;54.95;96745.13;5004415;28;20053;-64
2022/08/07 07:28:50;;;;;;;8.00;7.25;;;;;;;26.63;54.72;96733.56;5004294;28;20570;-64
2022/08/07 07:31:40;;;;;;;8.23;6.80;;;;;;;26.56;55.17;96733.91;5003433;28;20132;-66
2022/08/07 07:34:12;;;;;;;;;;;;;;;26.76;54.97;96744.69;5003670;28;20057;-60
2022/08/07 07:36:44;;;;;;;10.02;7.15;;;;;;;26.52;54.28;96693.53;5003177;28;19991;-60
2022/08/07 07:39:21;;;;;;;7.53;6.45;;;;;;;26.75;53.44;96738.22;5004967;28;20073;-61
2022/08/07 07:41:53;;;;;;;8.75;7.85;;;;;;;26.78;54.04;96740.09;5004642;28;20066;-60
2022/08/07 07:44:44;;;;;;;9.05;6.78;;;;;;;27.12;53.96;96728.16;5004364;28;20060;-65
2022/08/07 07:47:16;;;;;;;8.52;7.13;;;;;;;27.41;52.68;96736.75;5003941;28;20045;-64
2022/08/07 07:49:51;;;;;;;7.78;6.95;;;;;;;27.60;52.34;96720.28;4998070;28;20054;-65
2022/08/07 07:52:41;;;;;;;9.55;7.43;;;;;;;27.88;51.36;96713.03;4985215;28;20058;-61
2022/08/07 07:55:09;;;;;;;7.30;6.60;;;;;;;28.17;51.53;96739.38;4984877;28;20085;-65
2022/08/07 07:57:39;;;;;;;8.30;7.43;;;;;;;28.04;50.78;96736.06;4987478;28;20460;-64
2022/08/07 08:00:19;;;;;;;7.40;6.68;;;;;;;27.87;51.41;96743.53;4959182;28;20330;-64
2022/08/07 08:03:12;;;;;;;8.32;6.38;;;;;;;27.32;51.00;96699.84;5007650;28;20054;-64
2022/08/07 08:06:00;;;;;;;7.28;6.55;;;;;;;27.58;51.06;96740.69;5007942;28;20100;-58
2022/08/07 08:08:29;;;;;;;10.43;7.38;;;;;;;27.49;51.14;96720.84;5022653;28;20076;-64
2022/08/07 08:11:06;;;;;;;8.30;6.68;;;;;;;27.88;50.69;96732.94;5007653;28;20100;-60
2022/08/07 08:13:39;;;;;;;7.95;6.82;;;;;;;27.87;49.35;96734.19;5007174;28;20588;-60
2022/08/07 08:16:26;;;;;;;8.10;7.07;;;;;;;27.78;49.53;96737.94;5007478;28;20077;-61
2022/08/07 08:18:57;;;;;;;26.48;11.30;;;;;;;28.25;49.07;96739.00;5007555;28;20057;-61
2022/08/07 08:27:42;;;;;;;9.07;6.78;;;;;;;28.29;46.93;96736.72;5007514;28;20861;-59
2022/08/07 08:30:24;;;;;;;13.77;9.05;;;;;;;28.35;44.59;96729.00;5006236;28;20523;-61
2022/08/07 08:32:58;;;;;;;6.90;6.20;;;;;;;28.04;45.39;96744.59;5007432;28;20057;-59
2022/08/07 08:35:28;;;;;;;18.08;9.60;;;;;;;28.47;44.44;96742.16;5007775;28;20479;-64
2022/08/07 08:38:15;;;;;;;7.25;6.03;;;;;;;28.63;43.68;96733.09;5006913;28;20150;-64
2022/08/07 08:40:55;;;;;;;6.50;5.90;;;;;;;28.45;43.92;96727.63;5007737;28;20061;-67
2022/08/07 08:43:39;;;;;;;7.38;6.20;;;;;;;28.52;44.11;96738.63;5007200;28;20057;-59
2022/08/07 08:46:53;;;;;;;6.53;5.88;;;;;;;28.18;44.36;96726.69;5007176;28;20097;-65
2022/08/07 08:49:39;;;;;;;7.60;6.65;;;;;;;28.64;44.64;96726.09;5022193;28;20053;-63
2022/08/07 08:52:38;;;;;;;6.72;6.03;;;;;;;28.76;44.51;96736.38;5006938;28;20327;-59
2022/08/07 08:55:25;;;;;;;7.57;6.40;;;;;;;28.94;44.18;96741.81;5007424;28;20528;-64
2022/08/07 08:58:35;;;;;;;6.60;5.95;;;;;;;29.00;42.94;96734.09;5007019;28;20050;-60
2022/08/07 09:01:12;;;;;;;8.07;6.07;;;;;;;29.30;42.32;96712.69;5007114;28;20049;-65
2022/08/07 09:04:21;;;;;;;7.13;6.43;;;;;;;29.68;41.55;96720.09;5005313;28;20049;-64
2022/08/07 09:07:04;;;;;;;8.15;5.93;;;;;;;29.34;41.92;96713.22;5018438;28;20046;-60
2022/08/07 09:09:55;;;;;;;11.00;7.63;;;;;;;30.05;41.36;96727.44;5005982;28;20441;-65
2022/08/07 09:12:40;;;;;;;10.70;7.45;;;;;;;30.34;41.22;96724.31;5006633;28;20123;-64
2022/08/07 09:15:48;;;;;;;6.70;6.10;;;;;;;29.89;41.50;96730.97;5007142;28;20123;-60
2022/08/07 09:19:03;;;;;;;7.55;6.75;;;;;;;30.40;40.32;96722.28;5006959;28;20135;-62
2022/08/07 09:22:15;;;;;;;8.23;6.88;;;;;;;30.86;39.70;96717.09;5006225;28;20069;-65
2022/08/07 09:25:48;;;;;;;7.57;5.50;;;;;;;30.47;41.31;96724.66;5006849;28;20119;-65
2022/08/07 09:28:53;;;;;;;9.90;6.18;;;;;;;30.45;39.81;96727.25;5002766;28;20068;-65
2022/08/07 09:32:01;;;;;;;6.75;5.28;;;;;;;30.40;39.73;96725.13;5005421;28;20464;-64
2022/08/07 09:34:36;;;;;;;6.50;5.90;;;;;;;30.20;40.38;96722.38;5005177;28;20053;-65
2022/08/07 09:37:24;;;;;;;6.50;5.90;;;;;;;30.09;39.73;96722.28;5006206;28;20061;-65
2022/08/07 09:40:34;;;;;;;6.05;5.55;;;;;;;30.95;38.59;96714.03;5004851;28;20053;-61
2022/08/07 09:43:26;;;;;;;6.07;5.55;;;;;;;30.91;38.25;96690.59;5006101;28;20064;-60
2022/08/07 09:46:49;;;;;;;6.88;6.20;;;;;;;31.18;37.61;96711.25;5005613;28;20056;-60
2022/08/07 09:49:57;;;;;;;6.97;6.30;;;;;;;31.42;36.84;96700.94;5001001;28;20473;-61
2022/08/07 09:53:01;;;;;;;6.97;6.28;;;;;;;31.29;37.00;96662.59;4986245;28;20445;-64
2022/08/07 09:55:42;;;;;;;8.18;7.07;;;;;;;31.74;37.16;96698.66;5005581;28;20247;-59
2022/08/07 09:58:37;;;;;;;8.13;7.32;;;;;;;31.88;36.10;96686.19;5005909;28;20050;-65
2022/08/07 10:01:26;;;;;;;12.73;9.00;;;;;;;32.41;35.11;96688.00;5005916;28;20608;-61
2022/08/07 10:04:50;;;;;;;11.57;8.60;;;;;;;33.19;34.88;96683.56;5006276;28;20057;-66
2022/08/07 10:07:32;;;;;;;7.45;6.32;;;;;;;33.27;35.22;96685.34;5005810;28;20085;-59
2022/08/07 10:10:47;;;;;;;10.88;7.82;;;;;;;32.86;35.41;96678.72;5005806;28;20120;-65
2022/08/07 10:13:53;;;;;;;17.90;10.27;;;;;;;32.18;34.94;96681.47;5005529;28;20046;-65
2022/08/07 10:16:48;;;;;;;8.50;6.93;;;;;;;31.70;36.54;96675.19;5004230;28;20049;-59
2022/08/07 10:19:35;;;;;;;11.85;8.70;;;;;;;31.55;36.82;96674.66;5005535;28;20542;-62
2022/08/07 10:22:17;;;;;;;20.17;9.35;;;;;;;32.39;35.91;96674.16;5005116;28;20471;-61
2022/08/07 10:25:07;;;;;;;10.75;6.82;;;;;;;31.71;36.38;96659.59;5004235;28;20444;-62
2022/08/07 10:27:52;;;;;;;12.93;8.77;;;;;;;32.07;36.96;96664.28;5005498;28;20484;-61
2022/08/07 10:30:58;;;;;;;9.63;8.55;;;;;;;31.92;36.39;96666.63;5005670;28;20123;-62
2022/08/07 10:33:34;;;;;;;17.13;10.55;;;;;;;32.10;36.41;96669.75;5005255;28;20050;-61
2022/08/07 10:36:42;;;;;;;9.20;7.50;;;;;;;31.66;37.04;96663.22;5005271;28;20053;-62
2022/08/07 10:39:52;;;;;;;9.55;7.78;;;;;;;31.49;38.44;96671.03;5005120;28;20539;-61
2022/08/07 10:42:56;;;;;;;9.88;8.88;;;;;;;31.31;39.19;96677.22;5005073;28;20054;-61
2022/08/07 10:45:36;;;;;;;10.95;7.47;;;;;;;30.25;40.56;96690.22;5004055;28;20058;-61
2022/08/07 10:48:49;;;;;;;13.05;9.93;;;;;;;30.09;41.33;96699.44;5004739;28;20054;-62
2022/08/07 10:51:22;;;;;;;10.45;7.45;;;;;;;29.55;41.98;96706.97;5004807;28;20054;-63
2022/08/07 10:54:25;;;;;;;9.75;8.82;;;;;;;29.16;43.52;96696.44;5005064;28;20045;-61
2022/08/07 10:57:07;;;;;;;15.40;8.75;;;;;;;28.90;44.25;96718.41;5003339;28;20046;-62
2022/08/07 10:59:56;;;;;;;10.32;8.88;;;;;;;29.11;44.99;96717.13;5004798;28;20065;-61
2022/08/07 11:02:43;;;;;;;9.07;8.18;;;;;;;29.02;44.78;96714.41;5004827;28;20053;-62
2022/08/07 11:05:25;;;;;;;8.88;7.97;;;;;;;28.74;45.46;96727.56;5005169;28;20053;-62
2022/08/07 11:08:35;;;;;;;9.35;8.45;;;;;;;28.57;46.37;96729.38;5004842;28;20053;-62
2022/08/07 11:11:20;;;;;;;8.18;7.43;;;;;;;28.22;47.52;96742.81;5005027;28;20062;-61
2022/08/07 11:13:56;;;;;;;9.43;8.43;;;;;;;28.20;47.69;96726.19;5004883;28;20089;-61
2022/08/07 11:16:55;;;;;;;11.00;8.45;;;;;;;27.94;48.52;96731.78;5004448;28;20100;-61
2022/08/07 11:19:49;;;;;;;10.18;8.30;;;;;;;27.84;49.22;96723.78;5004900;28;20400;-62
2022/08/07 11:22:21;;;;;;;;;;;;;;;28.00;49.28;96729.78;5005397;28;20140;-61
2022/08/07 11:25:12;;;;;;;10.85;8.00;;;;;;;28.22;48.48;96768.47;5005150;28;20469;-61
2022/08/07 11:28:01;;;;;;;10.70;8.90;;;;;;;28.72;47.41;96724.41;5004865;28;20133;-62
2022/08/07 11:31:12;;;;;;;10.40;9.30;;;;;;;29.43;46.45;96730.22;5019539;28;20522;-63
2022/08/07 11:33:50;;;;;;;9.95;8.95;;;;;;;29.53;46.15;96720.19;5023749;28;20058;-61
2022/08/07 11:36:35;;;;;;;9.85;8.88;;;;;;;30.32;44.54;96706.88;5008897;28;20132;-62
2022/08/07 11:39:13;;;;;;;9.73;8.68;;;;;;;30.61;43.78;96700.84;5008908;28;20058;-61
2022/08/07 11:41:59;;;;;;;13.20;10.00;;;;;;;30.10;43.23;96626.69;5008642;28;20054;-61
2022/08/07 11:45:15;;;;;;;10.15;9.15;;;;;;;30.72;43.48;96706.59;5009177;28;20056;-61
2022/08/07 11:48:10;;;;;;;10.45;9.35;;;;;;;31.10;42.71;96698.72;4997108;28;20093;-60
2022/08/07 11:51:19;;;;;;;13.75;11.70;;;;;;;30.70;43.81;96700.59;5008490;28;20066;-62
2022/08/07 11:54:55;;;;;;;14.52;11.13;;;;;;;30.35;43.15;96703.00;5008642;28;20155;-62
2022/08/07 11:57:32;;;;;;;13.48;10.70;;;;;;;29.82;44.75;96697.13;5005648;28;20046;-62
2022/08/07 12:00:37;;;;;;;11.95;10.75;;;;;;;30.66;43.57;96694.38;5005713;28;20120;-61
2022/08/07 12:03:12;;;;;;;11.57;9.82;;;;;;;30.53;42.95;96688.31;5007980;28;20058;-61
2022/08/07 12:06:31;;;;;;;11.73;10.57;;;;;;;31.04;42.49;96692.19;5008088;28;20883;-62
2022/08/07 12:09:18;;;;;;;16.08;10.45;;;;;;;31.30;41.38;96687.09;5006699;28;20519;-63
2022/08/07 12:12:09;;;;;;;13.55;10.25;;;;;;;31.32;41.69;96696.75;5007019;28;20085;-63
2022/08/07 12:14:54;;;;;;;13.32;10.82;;;;;;;30.62;43.00;96696.66;5007887;28;20443;-63
2022/08/07 12:17:51;;;;;;;11.45;10.10;;;;;;;30.87;42.55;96698.63;5006341;28;20132;-63
2022/08/07 12:20:47;;;;;;;13.80;11.00;;;;;;;30.84;42.69;96651.03;5007996;28;20056;-61
2022/08/07 12:23:52;;;;;;;12.52;10.32;;;;;;;31.20;42.00;96677.16;5007503;28;20061;-64
2022/08/07 12:26:49;;;;;;;12.23;11.02;;;;;;;31.18;42.09;96645.41;5006405;28;20157;-60
2022/08/07 12:29:24;;;;;;;13.40;11.23;;;;;;;31.18;42.48;96665.44;5006383;28;20064;-64
2022/08/07 12:32:14;;;;;;;18.08;12.82;;;;;;;31.38;42.52;96662.41;5007414;28;20132;-60
2022/08/07 12:34:43;;;;;;;22.50;13.02;;;;;;;31.87;41.17;96607.22;5006358;28;20062;-60
2022/08/07 12:37:20;;;;;;;13.75;11.73;;;;;;;31.87;41.60;96655.94;5007757;28;20495;-61
2022/08/07 12:39:56;;;;;;;14.00;11.05;;;;;;;32.62;40.27;96654.78;5007907;28;20046;-60
2022/08/07 12:42:25;;;;;;;12.52;11.05;;;;;;;31.68;41.36;96683.53;5006089;28;20109;-58